Time;durP1;ratioP1;P1;durP2;ratioP2;P2;SDS_P1;SDS_P2;PMS_P1;PMS_P2;Temp;Humidity;BMP_temperature;BMP_pressure;BME280_temperature;BME280_humidity;BME280_pressure;Samples;Min_cycle;Max_cycle;Signal;HPM_P1;HPM_P2
2022/10/11 00:02:18;;;;;;;11.10;1.50;;;;;;;;;;4925813;29;20059;-82
2022/10/11 00:04:45;;;;;;;15.23;1.95;;;;;;;;;;4931073;29;20059;-81
2022/10/11 00:07:12;;;;;;;13.82;2.72;;;;;;;;;;4923549;29;20051;-80
2022/10/11 00:09:41;;;;;;;19.30;2.47;;;;;;;;;;4924615;29;20060;-78
2022/10/11 00:12:08;;;;;;;13.10;1.77;;;;;;;;;;4926093;29;20054;-79
2022/10/11 00:14:36;;;;;;;11.70;1.88;;;;;;;;;;4926335;29;20498;-76
2022/10/11 00:17:03;;;;;;;15.98;2.22;;;;;;;;;;4927429;29;20067;-78
2022/10/11 00:19:30;;;;;;;16.30;2.53;;;;;;;;;;4925164;29;20060;-80
2022/10/11 00:21:58;;;;;;;14.45;1.67;;;;;;;;;;4927128;29;20044;-78
2022/10/11 00:24:25;;;;;;;12.75;2.13;;;;;;;;;;4925855;29;20130;-77
2022/10/11 00:26:53;;;;;;;19.63;2.13;;;;;;;;;;4926501;29;20075;-78
2022/10/11 00:29:21;;;;;;;13.98;1.88;;;;;;;;;;4923217;29;20055;-78
2022/10/11 00:31:48;;;;;;;17.15;2.03;;;;;;;;;;4923769;29;20410;-78
2022/10/11 00:34:16;;;;;;;13.55;2.28;;;;;;;;;;4927309;29;20126;-79
2022/10/11 00:36:44;;;;;;;15.90;2.50;;;;;;;;;;4925730;29;20111;-79
2022/10/11 00:39:11;;;;;;;12.93;1.90;;;;;;;;;;4926318;29;20055;-79
2022/10/11 00:41:39;;;;;;;16.08;1.67;;;;;;;;;;4922264;29;20111;-78
2022/10/11 00:44:15;;;;;;;16.30;2.80;;;;;;;;;;4926164;29;20063;-79
2022/10/11 00:46:44;;;;;;;14.82;1.95;;;;;;;;;;4924694;29;20059;-79
2022/10/11 00:49:18;;;;;;;18.20;1.67;;;;;;;;;;4927635;29;20404;-79
2022/10/11 00:51:47;;;;;;;13.18;1.92;;;;;;;;;;4925865;29;20079;-79
2022/10/11 00:54:18;;;;;;;21.70;1.83;;;;;;;;;;4922836;29;20060;-78
2022/10/11 00:56:48;;;;;;;15.07;2.90;;;;;;;;;;4926237;29;20059;-78
2022/10/11 00:59:19;;;;;;;19.90;2.10;;;;;;;;;;4925189;29;20048;-79
2022/10/11 01:01:46;;;;;;;14.00;2.75;;;;;;;;;;4921263;29;20055;-79
2022/10/11 01:04:14;;;;;;;15.40;2.20;;;;;;;;;;4923709;29;20056;-78
2022/10/11 01:06:42;;;;;;;14.50;2.05;;;;;;;;;;4924116;29;20495;-79
2022/10/11 01:09:09;;;;;;;19.50;2.70;;;;;;;;;;4921680;29;20048;-79
2022/10/11 01:11:38;;;;;;;16.20;1.92;;;;;;;;;;4925420;29;20577;-79
2022/10/11 01:14:11;;;;;;;14.43;1.75;;;;;;;;;;4926550;29;20079;-79
2022/10/11 01:16:43;;;;;;;17.17;1.92;;;;;;;;;;4924329;29;20063;-79
2022/10/11 01:19:21;;;;;;;16.83;1.55;;;;;;;;;;4923267;29;20111;-78
2022/10/11 01:21:49;;;;;;;20.55;2.42;;;;;;;;;;4925471;29;20058;-78
2022/10/11 01:24:36;;;;;;;12.20;1.55;;;;;;;;;;4925474;29;20047;-79
2022/10/11 01:27:19;;;;;;;18.55;1.65;;;;;;;;;;4924907;29;20052;-78
2022/10/11 01:29:51;;;;;;;15.20;2.20;;;;;;;;;;4925556;29;20470;-79
2022/10/11 01:32:22;;;;;;;12.77;2.20;;;;;;;;;;4925219;29;20066;-79
2022/10/11 01:34:54;;;;;;;13.82;1.88;;;;;;;;;;4926596;29;20539;-79
2022/10/11 01:37:24;;;;;;;15.43;2.00;;;;;;;;;;4927932;29;20055;-79
2022/10/11 01:39:55;;;;;;;14.85;1.70;;;;;;;;;;4924148;29;20062;-78
2022/10/11 01:42:23;;;;;;;16.80;2.13;;;;;;;;;;4924472;29;20055;-79
2022/10/11 01:44:51;;;;;;;20.40;2.10;;;;;;;;;;4925280;29;20060;-79
2022/10/11 01:47:21;;;;;;;19.80;2.53;;;;;;;;;;4928597;29;20057;-79
2022/10/11 01:49:53;;;;;;;14.88;2.00;;;;;;;;;;4928275;29;20063;-78
2022/10/11 01:52:21;;;;;;;17.20;1.77;;;;;;;;;;4925717;29;20059;-78
2022/10/11 01:54:57;;;;;;;17.73;1.95;;;;;;;;;;4926742;29;20584;-79
2022/10/11 01:57:39;;;;;;;11.93;2.00;;;;;;;;;;4929036;29;20057;-79
2022/10/11 02:00:12;;;;;;;19.27;2.50;;;;;;;;;;4927890;29;20055;-79
2022/10/11 02:02:51;;;;;;;21.13;1.70;;;;;;;;;;4929304;29;20051;-79
2022/10/11 02:05:21;;;;;;;21.23;1.98;;;;;;;;;;4926521;29;20086;-78
2022/10/11 02:07:52;;;;;;;21.23;2.38;;;;;;;;;;4927612;29;20063;-79
2022/10/11 02:10:22;;;;;;;13.57;1.77;;;;;;;;;;4929603;29;20564;-79
2022/10/11 02:12:52;;;;;;;20.60;1.83;;;;;;;;;;4927456;29;20048;-78
2022/10/11 02:15:21;;;;;;;18.67;2.58;;;;;;;;;;4928567;29;20887;-80
2022/10/11 02:17:51;;;;;;;12.15;1.63;;;;;;;;;;4928601;29;20063;-78
2022/10/11 02:20:20;;;;;;;18.60;1.92;;;;;;;;;;4926952;29;20062;-79
2022/10/11 02:22:48;;;;;;;15.18;1.67;;;;;;;;;;4928400;29;20058;-79
2022/10/11 02:25:19;;;;;;;21.63;2.05;;;;;;;;;;4928872;29;20070;-79
2022/10/11 02:27:48;;;;;;;14.10;1.95;;;;;;;;;;4924146;29;20058;-79
2022/10/11 02:30:15;;;;;;;16.45;1.77;;;;;;;;;;4927492;29;20062;-79
2022/10/11 02:32:44;;;;;;;15.23;2.03;;;;;;;;;;4923821;29;20061;-79
2022/10/11 02:35:13;;;;;;;16.25;1.90;;;;;;;;;;4926568;29;20510;-78
2022/10/11 02:37:43;;;;;;;11.43;1.42;;;;;;;;;;4926760;29;20119;-79
2022/10/11 02:40:12;;;;;;;26.13;2.45;;;;;;;;;;4921856;29;20055;-78
2022/10/11 02:42:43;;;;;;;19.38;1.70;;;;;;;;;;4928749;29;20051;-78
2022/10/11 02:45:13;;;;;;;23.48;3.30;;;;;;;;;;4923824;29;20098;-79
2022/10/11 02:47:41;;;;;;;17.42;2.13;;;;;;;;;;4925384;29;20056;-79
2022/10/11 02:50:08;;;;;;;22.27;2.38;;;;;;;;;;4926088;29;20063;-78
2022/10/11 02:52:37;;;;;;;14.20;1.88;;;;;;;;;;4926717;29;20051;-78
2022/10/11 02:55:05;;;;;;;19.65;2.10;;;;;;;;;;4928012;29;20048;-79
2022/10/11 02:57:32;;;;;;;17.42;3.10;;;;;;;;;;4927027;29;20526;-78
2022/10/11 02:59:59;;;;;;;19.33;2.40;;;;;;;;;;4924119;29;20062;-78
2022/10/11 03:02:26;;;;;;;19.83;2.63;;;;;;;;;;4928143;29;20614;-79
2022/10/11 03:04:54;;;;;;;15.32;1.77;;;;;;;;;;4920207;29;20056;-79
2022/10/11 03:07:21;;;;;;;16.85;2.13;;;;;;;;;;4924969;29;20066;-78
2022/10/11 03:09:49;;;;;;;18.67;2.13;;;;;;;;;;4927918;29;20063;-79
2022/10/11 03:12:17;;;;;;;20.13;2.08;;;;;;;;;;4923077;29;20052;-79
2022/10/11 03:14:44;;;;;;;20.98;2.65;;;;;;;;;;4926226;29;20056;-78
2022/10/11 03:17:11;;;;;;;18.48;3.25;;;;;;;;;;4927672;29;20054;-79
2022/10/11 03:19:39;;;;;;;19.85;2.95;;;;;;;;;;4927433;29;20430;-79
2022/10/11 03:22:06;;;;;;;22.75;2.53;;;;;;;;;;4923647;29;20051;-78
2022/10/11 03:24:33;;;;;;;15.48;2.65;;;;;;;;;;4927501;29;20151;-79
2022/10/11 03:27:02;;;;;;;13.15;1.75;;;;;;;;;;4926942;29;20055;-79
2022/10/11 03:29:29;;;;;;;15.82;1.90;;;;;;;;;;4925563;29;20063;-78
2022/10/11 03:31:56;;;;;;;21.23;2.35;;;;;;;;;;4927453;29;20047;-79
2022/10/11 03:34:23;;;;;;;14.73;2.13;;;;;;;;;;4924946;29;20066;-77
2022/10/11 03:36:51;;;;;;;15.25;2.25;;;;;;;;;;4928278;29;20486;-79
2022/10/11 03:39:18;;;;;;;19.35;1.95;;;;;;;;;;4927833;29;20067;-78
2022/10/11 03:41:45;;;;;;;10.55;1.77;;;;;;;;;;4927951;29;20052;-77
2022/10/11 03:44:14;;;;;;;14.45;1.55;;;;;;;;;;4925270;29;20047;-79
2022/10/11 03:46:41;;;;;;;17.95;1.85;;;;;;;;;;4925250;29;20051;-79
2022/10/11 03:49:09;;;;;;;16.63;2.13;;;;;;;;;;4925380;29;20063;-78
2022/10/11 03:51:36;;;;;;;7.53;1.48;;;;;;;;;;4925770;29;20051;-78
2022/10/11 03:54:03;;;;;;;21.10;2.05;;;;;;;;;;4925193;29;20047;-78
2022/10/11 03:56:30;;;;;;;15.57;2.50;;;;;;;;;;4923493;29;20423;-79
2022/10/11 03:58:58;;;;;;;17.40;2.42;;;;;;;;;;4926557;29;20062;-78
2022/10/11 04:01:26;;;;;;;17.98;2.20;;;;;;;;;;4926733;29;20054;-78
2022/10/11 04:03:56;;;;;;;9.23;1.60;;;;;;;;;;4924097;29;20130;-79
2022/10/11 04:06:23;;;;;;;21.10;1.90;;;;;;;;;;4926914;29;20772;-78
2022/10/11 04:08:50;;;;;;;17.25;2.33;;;;;;;;;;4921344;29;20055;-79
2022/10/11 04:11:18;;;;;;;20.75;2.25;;;;;;;;;;4921101;29;20051;-79
2022/10/11 04:13:45;;;;;;;19.25;2.35;;;;;;;;;;4923537;29;20051;-79
2022/10/11 04:16:12;;;;;;;15.82;2.28;;;;;;;;;;4923580;29;20052;-78
2022/10/11 04:18:41;;;;;;;13.77;1.75;;;;;;;;;;4926442;29;20059;-78
2022/10/11 04:21:08;;;;;;;14.73;2.20;;;;;;;;;;4924014;29;20116;-79
2022/10/11 04:23:35;;;;;;;19.67;2.50;;;;;;;;;;4924344;29;20076;-78
2022/10/11 04:26:05;;;;;;;19.70;2.05;;;;;;;;;;4926669;29;20083;-78
2022/10/11 04:28:33;;;;;;;15.43;2.10;;;;;;;;;;4922639;29;20047;-78
2022/10/11 04:31:00;;;;;;;18.15;2.75;;;;;;;;;;4926121;29;20048;-78
2022/10/11 04:33:27;;;;;;;13.63;2.05;;;;;;;;;;4922761;29;20048;-78
2022/10/11 04:35:56;;;;;;;17.58;2.33;;;;;;;;;;4926388;29;20608;-79
2022/10/11 04:38:24;;;;;;;11.32;1.65;;;;;;;;;;4926918;29;20257;-79
2022/10/11 04:40:51;;;;;;;19.45;2.20;;;;;;;;;;4925750;29;20056;-79
2022/10/11 04:43:18;;;;;;;21.08;2.33;;;;;;;;;;4926370;29;20058;-78
2022/10/11 04:45:46;;;;;;;12.50;3.08;;;;;;;;;;4923703;29;20141;-78
2022/10/11 04:48:14;;;;;;;21.38;2.58;;;;;;;;;;4926405;29;20055;-78
2022/10/11 04:50:41;;;;;;;16.63;1.92;;;;;;;;;;4924400;29;20051;-79
2022/10/11 04:53:10;;;;;;;16.38;1.92;;;;;;;;;;4920060;29;20063;-79
2022/10/11 04:55:37;;;;;;;22.05;2.55;;;;;;;;;;4926825;29;20167;-79
2022/10/11 04:58:05;;;;;;;11.73;2.15;;;;;;;;;;4922729;29;20058;-78
2022/10/11 05:00:32;;;;;;;17.90;2.15;;;;;;;;;;4921737;29;20084;-78
2022/10/11 05:02:59;;;;;;;18.30;1.95;;;;;;;;;;4919947;29;20122;-78
2022/10/11 05:05:26;;;;;;;20.60;2.55;;;;;;;;;;4922998;29;20055;-79
2022/10/11 05:07:53;;;;;;;11.82;1.90;;;;;;;;;;4923411;29;20051;-79
2022/10/11 05:10:22;;;;;;;18.75;2.30;;;;;;;;;;4940825;28;20063;-78
2022/10/11 05:12:50;;;;;;;25.52;2.83;;;;;;;;;;4946106;28;20049;-78
2022/10/11 05:15:17;;;;;;;19.65;2.78;;;;;;;;;;4947255;28;20058;-78
2022/10/11 05:17:44;;;;;;;16.05;2.40;;;;;;;;;;4945557;28;20050;-77
2022/10/11 05:20:12;;;;;;;16.80;2.45;;;;;;;;;;4947909;28;20051;-78
2022/10/11 05:22:39;;;;;;;21.65;2.20;;;;;;;;;;4950368;28;20142;-78
2022/10/11 05:25:07;;;;;;;16.10;2.08;;;;;;;;;;4952116;28;21790;-81
2022/10/11 05:27:35;;;;;;;20.67;2.40;;;;;;;;;;4950087;28;20054;-80
2022/10/11 05:30:03;;;;;;;15.68;2.88;;;;;;;;;;4951733;28;20432;-80
2022/10/11 05:32:30;;;;;;;21.05;2.35;;;;;;;;;;4951928;28;20058;-77
2022/10/11 05:34:57;;;;;;;17.52;2.25;;;;;;;;;;4950926;28;20054;-80
2022/10/11 05:37:25;;;;;;;23.40;2.53;;;;;;;;;;4952852;28;20082;-77
2022/10/11 05:39:52;;;;;;;18.63;2.25;;;;;;;;;;4949823;28;20065;-79
2022/10/11 05:42:20;;;;;;;26.50;2.75;;;;;;;;;;4947578;28;20058;-79
2022/10/11 05:44:48;;;;;;;18.10;2.28;;;;;;;;;;4965979;28;20051;-79
2022/10/11 05:47:15;;;;;;;22.33;2.60;;;;;;;;;;4950878;28;20058;-79
2022/10/11 05:49:43;;;;;;;22.17;2.45;;;;;;;;;;4949627;28;20063;-80
2022/10/11 05:52:11;;;;;;;14.98;2.13;;;;;;;;;;4951663;28;20062;-78
2022/10/11 05:54:39;;;;;;;14.23;2.15;;;;;;;;;;4965071;28;20058;-79
2022/10/11 05:57:06;;;;;;;22.38;2.50;;;;;;;;;;4951298;28;20505;-79
2022/10/11 05:59:35;;;;;;;23.60;2.50;;;;;;;;;;4947864;28;20077;-79
2022/10/11 06:02:04;;;;;;;19.17;2.50;;;;;;;;;;4948999;28;20061;-78
2022/10/11 06:04:31;;;;;;;21.92;2.40;;;;;;;;;;4948318;28;20051;-78
2022/10/11 06:06:58;;;;;;;19.13;2.15;;;;;;;;;;4961163;28;20058;-78
2022/10/11 06:09:25;;;;;;;18.60;2.38;;;;;;;;;;4945216;28;20051;-79
2022/10/11 06:11:53;;;;;;;15.85;2.08;;;;;;;;;;4946759;28;20137;-79
2022/10/11 06:14:20;;;;;;;21.15;2.00;;;;;;;;;;4948199;28;20062;-78
2022/10/11 06:16:47;;;;;;;13.40;2.53;;;;;;;;;;4948018;28;20065;-79
2022/10/11 06:19:16;;;;;;;19.83;3.70;;;;;;;;;;4947635;28;20059;-79
2022/10/11 06:21:44;;;;;;;15.05;1.92;;;;;;;;;;4945015;28;20053;-79
2022/10/11 06:24:12;;;;;;;16.63;2.30;;;;;;;;;;4944599;28;20475;-78
2022/10/11 06:26:39;;;;;;;14.75;1.92;;;;;;;;;;4945555;28;20043;-78
2022/10/11 06:29:06;;;;;;;17.30;2.63;;;;;;;;;;4948109;28;20588;-77
2022/10/11 06:31:33;;;;;;;14.55;2.03;;;;;;;;;;4945387;28;20047;-79
2022/10/11 06:34:01;;;;;;;12.57;1.85;;;;;;;;;;4942826;28;20458;-77
2022/10/11 06:36:29;;;;;;;12.40;2.13;;;;;;;;;;4945906;28;20046;-79
2022/10/11 06:38:59;;;;;;;15.43;2.00;;;;;;;;;;4938981;28;20825;-78
2022/10/11 06:41:27;;;;;;;16.33;2.33;;;;;;;;;;4945683;28;20123;-78
2022/10/11 06:43:55;;;;;;;23.88;2.13;;;;;;;;;;4949012;28;20046;-78
2022/10/11 06:46:23;;;;;;;18.83;2.33;;;;;;;;;;4960128;28;20059;-79
2022/10/11 06:48:51;;;;;;;17.25;2.83;;;;;;;;;;4950129;28;20057;-76
2022/10/11 06:51:19;;;;;;;14.23;1.83;;;;;;;;;;4951739;28;20055;-76
2022/10/11 06:53:50;;;;;;;16.88;2.33;;;;;;;;;;4948566;28;20063;-77
2022/10/11 06:56:18;;;;;;;18.75;2.08;;;;;;;;;;4952016;28;20062;-78
2022/10/11 06:58:46;;;;;;;17.92;2.38;;;;;;;;;;4951448;28;20413;-78
2022/10/11 07:01:15;;;;;;;20.88;2.58;;;;;;;;;;4943439;28;20413;-80
2022/10/11 07:03:42;;;;;;;13.82;2.08;;;;;;;;;;4943268;28;20050;-75
2022/10/11 07:06:12;;;;;;;21.52;2.60;;;;;;;;;;4945475;28;20059;-78
2022/10/11 07:08:39;;;;;;;14.70;2.38;;;;;;;;;;4963223;28;20047;-79
2022/10/11 07:11:08;;;;;;;21.00;2.35;;;;;;;;;;4948390;28;20055;-80
2022/10/11 07:13:36;;;;;;;24.75;3.05;;;;;;;;;;4948128;28;20054;-79
2022/10/11 07:16:04;;;;;;;15.15;2.08;;;;;;;;;;4948885;28;20059;-78
2022/10/11 07:18:31;;;;;;;19.73;2.28;;;;;;;;;;4967449;28;20120;-80
2022/10/11 07:20:58;;;;;;;23.48;2.95;;;;;;;;;;4945815;28;20050;-79
2022/10/11 07:23:25;;;;;;;16.75;2.60;;;;;;;;;;4948489;28;20053;-79
2022/10/11 07:25:53;;;;;;;19.20;2.30;;;;;;;;;;4966887;28;20078;-78
2022/10/11 07:28:23;;;;;;;17.13;2.60;;;;;;;;;;4948548;28;20063;-78
2022/10/11 07:30:50;;;;;;;17.65;2.83;;;;;;;;;;4948829;28;20069;-79
2022/10/11 07:33:17;;;;;;;14.98;2.35;;;;;;;;;;4966382;28;20503;-79
2022/10/11 07:35:44;;;;;;;24.73;3.10;;;;;;;;;;4947685;28;20055;-79
2022/10/11 07:38:12;;;;;;;13.07;2.22;;;;;;;;;;4946529;28;20121;-78
2022/10/11 07:40:42;;;;;;;17.48;2.17;;;;;;;;;;4949576;28;20047;-79
2022/10/11 07:43:09;;;;;;;19.17;2.05;;;;;;;;;;4948996;28;20445;-79
2022/10/11 07:45:39;;;;;;;13.85;1.85;;;;;;;;;;4947450;28;20058;-79
2022/10/11 07:48:06;;;;;;;16.02;2.13;;;;;;;;;;4947495;28;20046;-76
2022/10/11 07:50:34;;;;;;;17.45;2.70;;;;;;;;;;4947874;28;20050;-74
2022/10/11 07:53:01;;;;;;;15.38;2.90;;;;;;;;;;4946889;28;20105;-74
2022/10/11 07:55:30;;;;;;;23.33;2.22;;;;;;;;;;4945104;28;20066;-75
2022/10/11 07:57:57;;;;;;;21.45;3.10;;;;;;;;;;4965742;28;20070;-74
2022/10/11 08:00:25;;;;;;;17.33;2.15;;;;;;;;;;4966099;28;20073;-76
2022/10/11 08:02:53;;;;;;;17.20;2.53;;;;;;;;;;4949377;28;20053;-77
2022/10/11 08:05:20;;;;;;;19.00;1.85;;;;;;;;;;4966987;28;20054;-77
2022/10/11 08:07:48;;;;;;;19.00;2.28;;;;;;;;;;4948465;28;20058;-77
2022/10/11 08:10:16;;;;;;;18.65;2.22;;;;;;;;;;4965015;28;20126;-75
2022/10/11 08:12:43;;;;;;;14.35;1.92;;;;;;;;;;4965962;28;20050;-75
2022/10/11 08:15:11;;;;;;;16.02;2.15;;;;;;;;;;4964587;28;20050;-76
2022/10/11 08:17:38;;;;;;;16.73;2.72;;;;;;;;;;4963040;28;20070;-75
2022/10/11 08:20:07;;;;;;;20.58;2.05;;;;;;;;;;4947274;28;20051;-75
2022/10/11 08:22:34;;;;;;;19.17;2.03;;;;;;;;;;4947686;28;20589;-74
2022/10/11 08:25:02;;;;;;;22.02;2.10;;;;;;;;;;4965753;28;20051;-76
2022/10/11 08:27:29;;;;;;;16.92;1.92;;;;;;;;;;4945571;28;20069;-74
2022/10/11 08:29:56;;;;;;;16.85;2.45;;;;;;;;;;4959164;28;20629;-74
2022/10/11 08:32:41;;;;;;;18.45;2.42;;;;;;;;;;4958832;28;21097;-75
2022/10/11 08:35:10;;;;;;;16.85;2.20;;;;;;;;;;4943427;28;20086;-75
2022/10/11 08:37:37;;;;;;;25.63;2.35;;;;;;;;;;4947062;28;20047;-75
2022/10/11 08:40:05;;;;;;;17.52;2.28;;;;;;;;;;4964058;28;20053;-76
2022/10/11 08:42:35;;;;;;;16.48;2.20;;;;;;;;;;4948026;28;20054;-75
2022/10/11 08:45:04;;;;;;;19.33;2.67;;;;;;;;;;4947856;28;20066;-76
2022/10/11 08:47:34;;;;;;;20.52;3.10;;;;;;;;;;4947866;28;20054;-76
2022/10/11 08:50:01;;;;;;;16.10;2.50;;;;;;;;;;4965311;28;20505;-75
2022/10/11 08:52:35;;;;;;;25.35;2.60;;;;;;;;;;4966016;28;20417;-76
2022/10/11 08:55:04;;;;;;;12.30;2.00;;;;;;;;;;4965529;28;20069;-75
2022/10/11 08:57:34;;;;;;;18.48;2.53;;;;;;;;;;4949871;28;20064;-74
2022/10/11 09:00:03;;;;;;;13.15;1.95;;;;;;;;;;4966092;28;20090;-75
2022/10/11 09:02:36;;;;;;;19.95;2.42;;;;;;;;;;4944063;28;20051;-76
2022/10/11 09:05:04;;;;;;;13.20;2.03;;;;;;;;;;4948714;28;20596;-74
2022/10/11 09:07:40;;;;;;;18.30;2.30;;;;;;;;;;4965379;28;20059;-75
2022/10/11 09:10:12;;;;;;;14.05;1.85;;;;;;;;;;4941967;28;20050;-75
2022/10/11 09:12:47;;;;;;;12.25;1.77;;;;;;;;;;4944895;28;20059;-76
2022/10/11 09:15:21;;;;;;;15.05;2.05;;;;;;;;;;4944997;28;20053;-74
2022/10/11 09:17:56;;;;;;;13.57;1.85;;;;;;;;;;4945413;28;20062;-76
2022/10/11 09:20:36;;;;;;;11.43;1.77;;;;;;;;;;4960665;28;20109;-75
2022/10/11 09:23:12;;;;;;;13.20;1.98;;;;;;;;;;4945949;28;20043;-75
2022/10/11 09:25:45;;;;;;;11.70;1.92;;;;;;;;;;4964741;28;20047;-75
2022/10/11 09:28:13;;;;;;;;;;;;;;;;;;4965887;28;20063;-75
2022/10/11 09:30:41;;;;;;;16.98;2.08;;;;;;;;;;4946369;28;19953;-74
2022/10/11 09:33:14;;;;;;;12.70;1.70;;;;;;;;;;4964513;28;20490;-75
2022/10/11 09:35:43;;;;;;;10.77;1.80;;;;;;;;;;4963155;28;20046;-76
2022/10/11 09:38:16;;;;;;;18.83;2.40;;;;;;;;;;4947033;28;20050;-74
2022/10/11 09:40:49;;;;;;;16.33;1.90;;;;;;;;;;4963592;28;20057;-74
2022/10/11 09:43:16;;;;;;;13.65;1.65;;;;;;;;;;4964855;28;20055;-74
2022/10/11 09:45:45;;;;;;;12.32;1.92;;;;;;;;;;4963806;28;20393;-74
2022/10/11 09:48:16;;;;;;;10.23;1.50;;;;;;;;;;4948259;28;20446;-75
2022/10/11 09:50:44;;;;;;;12.43;1.50;;;;;;;;;;4946763;28;20069;-75
2022/10/11 09:53:13;;;;;;;13.02;1.52;;;;;;;;;;4963710;28;20147;-74
2022/10/11 09:55:43;;;;;;;16.50;1.98;;;;;;;;;;4963004;28;20043;-75
2022/10/11 09:58:25;;;;;;;11.73;1.52;;;;;;;;;;4962445;28;20063;-75
2022/10/11 10:00:57;;;;;;;13.85;1.60;;;;;;;;;;4959889;28;20047;-74
2022/10/11 10:03:28;;;;;;;10.38;1.30;;;;;;;;;;4961515;28;20526;-75
2022/10/11 10:06:04;;;;;;;9.93;1.20;;;;;;;;;;4963085;28;20070;-74
2022/10/11 10:08:33;;;;;;;13.40;1.65;;;;;;;;;;4967877;28;20055;-75
2022/10/11 10:11:01;;;;;;;9.00;1.45;;;;;;;;;;4962446;28;20062;-75
2022/10/11 10:13:35;;;;;;;9.63;1.60;;;;;;;;;;4967026;28;20061;-75
2022/10/11 10:16:02;;;;;;;13.30;1.60;;;;;;;;;;4967365;28;20057;-74
2022/10/11 10:18:32;;;;;;;10.98;2.40;;;;;;;;;;4967434;28;20063;-74
2022/10/11 10:21:00;;;;;;;12.80;1.70;;;;;;;;;;4968082;28;20145;-74
2022/10/11 10:23:29;;;;;;;11.63;1.65;;;;;;;;;;4950928;28;20514;-75
2022/10/11 10:26:11;;;;;;;17.15;2.03;;;;;;;;;;4967819;28;20055;-74
2022/10/11 10:28:39;;;;;;;15.43;1.87;;;;;;;;;;4966223;28;20166;-74
2022/10/11 10:31:20;;;;;;;12.23;1.17;;;;;;;;;;4967076;28;20054;-75
2022/10/11 10:33:51;;;;;;;15.82;1.73;;;;;;;;;;4965989;28;20062;-75
2022/10/11 10:36:19;;;;;;;8.43;1.30;;;;;;;;;;4966759;28;20055;-75
2022/10/11 10:38:50;;;;;;;12.23;1.77;;;;;;;;;;4967327;28;20047;-74
2022/10/11 10:41:19;;;;;;;9.20;1.90;;;;;;;;;;4967169;28;20066;-74
2022/10/11 10:43:52;;;;;;;12.90;1.65;;;;;;;;;;4966712;28;20106;-74
2022/10/11 10:46:29;;;;;;;18.75;2.13;;;;;;;;;;4963564;28;20696;-74
2022/10/11 10:49:00;;;;;;;14.60;2.00;;;;;;;;;;4964729;28;20093;-75
2022/10/11 10:51:34;;;;;;;39.05;2.63;;;;;;;;;;4965905;28;20090;-74
2022/10/11 10:54:04;;;;;;;12.35;1.67;;;;;;;;;;4965984;28;21171;-74
2022/10/11 10:56:35;;;;;;;14.15;2.17;;;;;;;;;;4958652;28;20043;-74
2022/10/11 10:59:06;;;;;;;14.25;1.42;;;;;;;;;;4963110;28;20498;-75
2022/10/11 11:01:34;;;;;;;11.63;1.60;;;;;;;;;;4956217;28;20133;-74
2022/10/11 11:04:07;;;;;;;8.40;1.38;;;;;;;;;;4961584;28;20564;-74
2022/10/11 11:06:38;;;;;;;9.38;1.52;;;;;;;;;;4968213;28;20066;-74
2022/10/11 11:09:14;;;;;;;10.77;1.33;;;;;;;;;;4966783;28;20051;-74
2022/10/11 11:11:51;;;;;;;12.27;1.98;;;;;;;;;;4948372;28;20062;-74
2022/10/11 11:14:23;;;;;;;12.35;2.17;;;;;;;;;;4944065;28;20050;-74
2022/10/11 11:16:56;;;;;;;12.93;1.45;;;;;;;;;;4965849;28;20578;-74
2022/10/11 11:19:30;;;;;;;12.63;1.63;;;;;;;;;;4961977;28;20065;-74
2022/10/11 11:22:00;;;;;;;14.65;2.50;;;;;;;;;;4944971;28;20054;-74
2022/10/11 11:24:32;;;;;;;16.05;1.75;;;;;;;;;;4967329;28;20508;-74
2022/10/11 11:27:05;;;;;;;16.45;2.50;;;;;;;;;;4965353;28;20051;-74
2022/10/11 11:29:38;;;;;;;12.65;1.75;;;;;;;;;;4944446;28;20054;-74
2022/10/11 11:32:11;;;;;;;15.57;1.90;;;;;;;;;;4950083;28;20051;-74
2022/10/11 11:34:40;;;;;;;10.70;1.73;;;;;;;;;;4966302;28;20057;-74
2022/10/11 11:37:15;;;;;;;11.68;1.52;;;;;;;;;;4966469;28;20408;-74
2022/10/11 11:39:44;;;;;;;9.90;1.30;;;;;;;;;;4958109;28;20050;-73
2022/10/11 11:42:16;;;;;;;10.45;1.50;;;;;;;;;;4957114;28;20117;-74
2022/10/11 11:44:45;;;;;;;11.95;1.63;;;;;;;;;;4963944;28;20046;-74
2022/10/11 11:47:17;;;;;;;13.00;1.38;;;;;;;;;;4964609;28;20609;-74
2022/10/11 11:49:46;;;;;;;9.45;1.30;;;;;;;;;;4947448;28;20067;-73
2022/10/11 11:52:17;;;;;;;5.43;1.20;;;;;;;;;;4966241;28;20058;-74
2022/10/11 11:54:48;;;;;;;9.27;1.45;;;;;;;;;;4959010;28;20086;-74
2022/10/11 11:57:23;;;;;;;8.90;1.50;;;;;;;;;;4964786;28;20082;-74
2022/10/11 11:59:56;;;;;;;9.80;1.40;;;;;;;;;;4966985;28;20051;-74
2022/10/11 12:02:35;;;;;;;10.02;1.58;;;;;;;;;;4967170;28;20061;-74
2022/10/11 12:05:02;;;;;;;12.40;1.48;;;;;;;;;;4959747;28;20055;-74
2022/10/11 12:07:30;;;;;;;12.43;2.20;;;;;;;;;;4967190;28;20055;-75
2022/10/11 12:10:12;;;;;;;12.65;1.63;;;;;;;;;;4963809;28;21183;-74
2022/10/11 12:12:41;;;;;;;8.55;1.50;;;;;;;;;;4964303;28;20042;-74
2022/10/11 12:15:18;;;;;;;11.25;2.17;;;;;;;;;;4963555;28;20679;-74
2022/10/11 12:18:01;;;;;;;10.63;1.38;;;;;;;;;;4947750;28;20077;-73
2022/10/11 12:20:30;;;;;;;7.82;1.27;;;;;;;;;;4962698;28;20050;-73
2022/10/11 12:22:59;;;;;;;15.70;1.73;;;;;;;;;;4965265;28;20130;-74
2022/10/11 12:25:42;;;;;;;10.48;1.48;;;;;;;;;;4965616;28;20117;-73
2022/10/11 12:28:29;;;;;;;11.32;1.45;;;;;;;;;;4960063;28;20049;-74
2022/10/11 12:31:04;;;;;;;12.82;1.67;;;;;;;;;;4965273;28;20050;-74
2022/10/11 12:33:46;;;;;;;5.50;1.48;;;;;;;;;;4965738;28;20046;-73
2022/10/11 12:36:31;;;;;;;9.27;1.40;;;;;;;;;;4964869;28;20054;-74
2022/10/11 12:39:29;;;;;;;13.93;2.00;;;;;;;;;;4966112;28;20054;-74
2022/10/11 12:42:06;;;;;;;12.10;2.03;;;;;;;;;;4881482;29;20063;-74
2022/10/11 12:44:33;;;;;;;10.57;1.67;;;;;;;;;;4934437;28;20054;-74
2022/10/11 12:47:20;;;;;;;10.95;1.52;;;;;;;;;;4966173;28;20046;-73
2022/10/11 12:49:52;;;;;;;8.20;1.58;;;;;;;;;;4964515;28;20054;-73
2022/10/11 12:52:23;;;;;;;9.48;1.73;;;;;;;;;;4965901;28;20718;-73
2022/10/11 12:55:03;;;;;;;9.93;1.75;;;;;;;;;;4966466;28;20071;-73
2022/10/11 12:57:51;;;;;;;11.95;1.25;;;;;;;;;;4967176;28;20494;-74
2022/10/11 13:00:20;;;;;;;17.20;1.50;;;;;;;;;;4956895;28;20580;-74
2022/10/11 13:02:52;;;;;;;12.70;1.52;;;;;;;;;;4945707;28;20134;-73
2022/10/11 13:05:22;;;;;;;12.32;1.55;;;;;;;;;;4964732;28;20077;-73
2022/10/11 13:07:50;;;;;;;12.02;2.08;;;;;;;;;;4962432;28;20091;-74
2022/10/11 13:10:20;;;;;;;9.73;2.45;;;;;;;;;;4957688;28;20656;-74
2022/10/11 13:12:48;;;;;;;11.70;1.70;;;;;;;;;;4963744;28;20078;-73
2022/10/11 13:15:17;;;;;;;11.13;1.80;;;;;;;;;;4962015;28;20665;-74
2022/10/11 13:17:44;;;;;;;10.38;1.80;;;;;;;;;;4961522;28;20125;-74
2022/10/11 13:20:18;;;;;;;14.43;1.85;;;;;;;;;;4941531;28;20515;-73
2022/10/11 13:22:47;;;;;;;11.82;1.80;;;;;;;;;;4964515;28;20051;-74
2022/10/11 13:25:15;;;;;;;10.82;1.88;;;;;;;;;;4963663;28;20122;-74
2022/10/11 13:27:43;;;;;;;9.30;1.70;;;;;;;;;;4964187;28;20102;-74
2022/10/11 13:30:16;;;;;;;16.05;2.20;;;;;;;;;;4964560;28;20054;-73
2022/10/11 13:32:43;;;;;;;7.38;1.33;;;;;;;;;;4962254;28;20055;-74
2022/10/11 13:35:15;;;;;;;9.02;1.40;;;;;;;;;;4948533;28;20053;-73
2022/10/11 13:37:45;;;;;;;7.53;1.48;;;;;;;;;;4963359;28;20757;-74
2022/10/11 13:40:14;;;;;;;17.80;1.80;;;;;;;;;;4963067;28;20062;-73
2022/10/11 13:42:41;;;;;;;6.88;1.70;;;;;;;;;;4967732;28;20047;-74
2022/10/11 13:45:11;;;;;;;10.98;1.60;;;;;;;;;;4969571;28;20050;-71
2022/10/11 13:47:38;;;;;;;7.57;1.50;;;;;;;;;;4968329;28;20055;-71
2022/10/11 13:50:10;;;;;;;9.88;1.70;;;;;;;;;;4969470;28;20429;-71
2022/10/11 13:52:50;;;;;;;13.27;1.60;;;;;;;;;;4968975;28;20046;-71
2022/10/11 13:55:23;;;;;;;9.50;1.63;;;;;;;;;;4952257;28;20084;-71
2022/10/11 13:57:51;;;;;;;10.77;1.63;;;;;;;;;;4969650;28;20057;-70
2022/10/11 14:00:23;;;;;;;11.15;2.00;;;;;;;;;;4968499;28;20114;-71
2022/10/11 14:02:51;;;;;;;10.40;2.22;;;;;;;;;;4962049;28;20089;-71
2022/10/11 14:05:23;;;;;;;9.32;2.00;;;;;;;;;;4968642;28;20043;-71
2022/10/11 14:07:52;;;;;;;9.13;1.73;;;;;;;;;;4957924;28;20064;-71
2022/10/11 14:10:20;;;;;;;15.25;2.03;;;;;;;;;;4965621;28;20051;-71
2022/10/11 14:12:57;;;;;;;10.73;2.05;;;;;;;;;;4948873;28;20059;-70
2022/10/11 14:15:25;;;;;;;8.93;1.77;;;;;;;;;;4966618;28;20058;-70
2022/10/11 14:17:53;;;;;;;11.02;1.83;;;;;;;;;;4966022;28;20054;-71
2022/10/11 14:20:21;;;;;;;13.00;1.90;;;;;;;;;;4966192;28;20066;-71
2022/10/11 14:22:52;;;;;;;8.63;1.70;;;;;;;;;;4967885;28;20509;-70
2022/10/11 14:25:19;;;;;;;7.35;1.27;;;;;;;;;;4966575;28;20047;-71
2022/10/11 14:27:47;;;;;;;6.95;1.67;;;;;;;;;;4964185;28;20057;-71
2022/10/11 14:30:17;;;;;;;14.18;1.88;;;;;;;;;;4968645;28;20055;-71
2022/10/11 14:32:45;;;;;;;10.65;1.40;;;;;;;;;;4962260;28;20058;-71
2022/10/11 14:35:16;;;;;;;9.77;1.70;;;;;;;;;;4963421;28;20047;-70
2022/10/11 14:37:43;;;;;;;10.80;1.50;;;;;;;;;;4949716;28;20066;-71
2022/10/11 14:40:16;;;;;;;7.38;1.20;;;;;;;;;;4961862;28;20660;-70
2022/10/11 14:42:43;;;;;;;10.82;2.17;;;;;;;;;;4964813;28;20093;-71
2022/10/11 14:45:10;;;;;;;9.75;1.70;;;;;;;;;;4968729;28;20074;-71
2022/10/11 14:47:38;;;;;;;13.80;1.90;;;;;;;;;;4965184;28;20042;-71